Time;durP1;ratioP1;P1;durP2;ratioP2;P2;SDS_P1;SDS_P2;PMS_P1;PMS_P2;Temp;Humidity;BMP_temperature;BMP_pressure;BME280_temperature;BME280_humidity;BME280_pressure;Samples;Min_cycle;Max_cycle;Signal;HPM_P1;HPM_P2
2024/03/24 00:02:07;;;;;;;9.70;8.90;;;;;;;5.07;90.10;99481.16;5033903;28;20209;-79
2024/03/24 00:04:32;;;;;;;9.20;8.40;;;;;;;5.01;89.97;99481.22;5033522;28;20217;-80
2024/03/24 00:06:59;;;;;;;10.43;9.43;;;;;;;5.11;90.04;99482.88;5026417;28;20651;-80
2024/03/24 00:09:25;;;;;;;9.63;8.73;;;;;;;5.17;89.79;99476.72;5034451;28;20328;-80
2024/03/24 00:11:52;;;;;;;9.17;8.50;;;;;;;5.05;90.06;99469.97;5029909;28;20713;-79
2024/03/24 00:14:17;;;;;;;9.27;8.47;;;;;;;5.09;88.98;99470.81;5027901;28;20214;-80
2024/03/24 00:16:43;;;;;;;8.93;8.23;;;;;;;5.11;89.87;99467.34;5033877;28;20267;-79
2024/03/24 00:19:09;;;;;;;9.00;8.30;;;;;;;4.87;89.92;99468.47;5034555;28;20263;-79
2024/03/24 00:21:35;;;;;;;9.53;8.73;;;;;;;4.81;91.82;99450.44;5034278;28;20668;-79
2024/03/24 00:24:01;;;;;;;9.90;9.07;;;;;;;5.01;91.49;99436.41;5035420;28;20264;-79
2024/03/24 00:26:29;;;;;;;9.40;8.70;;;;;;;5.09;90.56;99438.03;5019108;28;20207;-80
2024/03/24 00:28:54;;;;;;;10.33;8.33;;;;;;;5.22;90.01;99443.91;5034785;28;20892;-80
2024/03/24 00:31:21;;;;;;;9.40;8.50;;;;;;;5.30;90.13;99455.00;5015768;28;20249;-80
2024/03/24 00:33:47;;;;;;;9.27;8.37;;;;;;;5.27;89.53;99465.41;5032959;28;20220;-79
2024/03/24 00:36:13;;;;;;;10.00;9.20;;;;;;;5.03;90.02;99465.69;5032836;28;20260;-78
2024/03/24 00:38:39;;;;;;;10.17;9.17;;;;;;;5.16;90.36;99446.56;5033253;28;20212;-80
2024/03/24 00:41:06;;;;;;;9.70;8.90;;;;;;;5.08;90.88;99451.84;5030594;28;20222;-79
2024/03/24 00:43:33;;;;;;;8.97;8.27;;;;;;;5.16;91.39;99423.28;5034652;28;20206;-78
2024/03/24 00:45:59;;;;;;;9.73;9.00;;;;;;;5.10;90.90;99410.44;5038203;28;20206;-79
2024/03/24 00:48:25;;;;;;;9.97;9.17;;;;;;;5.18;91.04;99409.47;4688542;28;10000697;-80
2024/03/24 00:50:51;;;;;;;10.70;9.80;;;;;;;5.22;91.20;99394.75;5024814;28;20684;-80
2024/03/24 00:53:16;;;;;;;9.20;8.50;;;;;;;5.20;90.35;99396.50;5017955;28;20214;-80
2024/03/24 00:55:43;;;;;;;9.70;8.77;;;;;;;5.30;89.95;99415.34;5029735;28;20280;-80
2024/03/24 00:58:08;;;;;;;10.37;8.67;;;;;;;5.28;88.77;99424.88;5032514;28;20607;-80
2024/03/24 01:00:36;;;;;;;8.63;7.93;;;;;;;5.29;88.61;99434.31;5032041;28;20234;-80
2024/03/24 01:03:01;;;;;;;8.47;7.77;;;;;;;5.30;88.35;99439.47;5032129;28;20213;-81
2024/03/24 01:05:27;;;;;;;8.03;7.43;;;;;;;5.20;88.84;99443.06;5031636;28;20212;-80
2024/03/24 01:07:53;;;;;;;8.17;7.37;;;;;;;5.16;87.77;99447.44;5023933;28;20927;-80
2024/03/24 01:10:19;;;;;;;7.60;7.00;;;;;;;5.20;87.96;99434.47;5016588;28;20284;-80
2024/03/24 01:12:49;;;;;;;7.57;7.00;;;;;;;5.18;88.53;99437.91;5030676;28;20218;-80
2024/03/24 01:15:16;;;;;;;9.00;6.90;;;;;;;5.22;87.44;99440.47;5025688;28;20211;-80
2024/03/24 01:17:42;;;;;;;7.20;6.60;;;;;;;5.02;86.83;99454.50;5019536;28;20292;-80
2024/03/24 01:20:11;;;;;;;7.50;6.90;;;;;;;4.92;87.35;99451.19;5010740;28;20260;-80
2024/03/24 01:22:36;;;;;;;7.97;7.30;;;;;;;5.12;88.04;99442.31;5011750;28;20210;-79
2024/03/24 01:25:03;;;;;;;7.97;7.27;;;;;;;5.12;87.18;99439.75;5023932;28;20206;-79
2024/03/24 01:27:28;;;;;;;7.47;6.77;;;;;;;5.15;87.83;99448.31;5032078;28;20265;-80
2024/03/24 01:29:54;;;;;;;7.73;7.03;;;;;;;5.27;87.30;99452.47;5028822;28;20230;-80
2024/03/24 01:32:20;;;;;;;7.07;6.57;;;;;;;5.31;87.11;99453.25;5030859;28;20248;-80
2024/03/24 01:34:47;;;;;;;7.20;6.60;;;;;;;5.34;87.81;99446.31;5031007;28;20210;-81
2024/03/24 01:37:13;;;;;;;7.33;6.80;;;;;;;5.36;87.40;99444.56;5026722;28;20275;-81
2024/03/24 01:39:44;;;;;;;8.27;6.57;;;;;;;5.18;88.26;99434.47;5020831;28;20234;-81
2024/03/24 01:42:09;;;;;;;7.73;6.80;;;;;;;5.10;88.40;99425.97;5031402;28;20221;-80
2024/03/24 01:44:35;;;;;;;7.87;7.10;;;;;;;4.93;87.81;99426.16;5024832;28;20206;-81
2024/03/24 01:47:01;;;;;;;7.37;6.67;;;;;;;5.13;88.97;99400.03;5015880;28;20217;-80
2024/03/24 01:49:27;;;;;;;8.23;7.50;;;;;;;5.20;88.86;99385.31;5031780;28;20237;-81
2024/03/24 01:51:54;;;;;;;8.77;8.07;;;;;;;4.95;88.63;99370.97;5032034;28;20248;-79
2024/03/24 01:54:22;;;;;;;7.13;6.53;;;;;;;4.84;89.09;99375.44;5031015;28;20202;-79
2024/03/24 01:56:47;;;;;;;7.43;6.83;;;;;;;4.86;89.59;99357.31;5052625;22;20291;-78
2024/03/24 01:59:14;;;;;;;8.40;7.70;;;;;;;4.98;88.94;99349.41;5048318;28;20207;-80
2024/03/24 02:01:39;;;;;;;7.77;7.17;;;;;;;5.06;89.43;99341.53;5043846;28;20208;-80
2024/03/24 02:04:08;;;;;;;8.30;7.60;;;;;;;5.03;89.86;99332.06;5031812;28;20745;-78
2024/03/24 02:06:34;;;;;;;7.67;7.03;;;;;;;5.12;89.86;99329.34;5018698;28;20244;-79
2024/03/24 02:09:02;;;;;;;7.17;6.57;;;;;;;5.11;88.32;99342.31;5013113;28;20206;-79
2024/03/24 02:11:28;;;;;;;7.80;7.13;;;;;;;5.21;88.05;99353.38;5011713;28;20655;-79
2024/03/24 02:13:56;;;;;;;7.00;6.50;;;;;;;5.14;87.18;99368.16;5012233;28;20212;-79
2024/03/24 02:16:22;;;;;;;7.53;6.93;;;;;;;5.22;88.63;99357.69;5014281;28;20233;-79
2024/03/24 02:18:48;;;;;;;9.23;7.00;;;;;;;5.40;87.97;99349.63;5021509;28;20621;-79
2024/03/24 02:21:14;;;;;;;7.60;6.83;;;;;;;5.23;86.57;99372.31;5011408;28;20206;-77
2024/03/24 02:23:41;;;;;;;7.57;6.80;;;;;;;5.32;88.09;99356.66;5022319;28;20206;-78
2024/03/24 02:26:07;;;;;;;6.67;6.10;;;;;;;5.38;87.14;99357.41;5030831;28;20224;-79
2024/03/24 02:28:33;;;;;;;6.63;6.13;;;;;;;5.40;88.39;99344.47;5030069;28;20251;-78
2024/03/24 02:30:58;;;;;;;7.03;6.33;;;;;;;5.36;87.51;99335.88;5033014;28;20288;-79
2024/03/24 02:33:27;;;;;;;6.47;5.80;;;;;;;5.13;86.97;99353.47;5032992;28;20214;-79
2024/03/24 02:35:52;;;;;;;6.63;6.03;;;;;;;5.30;87.18;99350.66;5032447;28;20283;-78
2024/03/24 02:38:19;;;;;;;6.67;6.07;;;;;;;5.02;86.62;99357.97;5035001;28;20229;-78
2024/03/24 02:40:48;;;;;;;5.97;5.47;;;;;;;5.00;87.29;99346.78;5034757;28;20260;-78
2024/03/24 02:43:14;;;;;;;7.70;5.57;;;;;;;5.03;88.34;99326.03;5035395;28;20305;-79
2024/03/24 02:45:40;;;;;;;7.93;6.57;;;;;;;5.12;88.45;99325.94;5035400;28;20282;-79
2024/03/24 02:48:07;;;;;;;6.63;6.03;;;;;;;5.30;88.27;99306.69;5032380;28;20203;-79
2024/03/24 02:50:32;;;;;;;8.70;6.10;;;;;;;5.10;86.64;99327.69;5015987;28;20249;-78
2024/03/24 02:52:59;;;;;;;7.70;6.40;;;;;;;5.19;86.69;99332.69;5016989;28;20209;-79
2024/03/24 02:55:25;;;;;;;6.87;5.30;;;;;;;5.39;86.95;99319.44;5019790;28;20451;-77
2024/03/24 02:57:53;;;;;;;6.50;4.80;;;;;;;5.31;86.75;99331.66;5020521;28;20240;-78
2024/03/24 03:00:18;;;;;;;6.40;5.63;;;;;;;5.27;86.37;99340.34;5033283;28;20237;-79
2024/03/24 03:02:45;;;;;;;6.77;6.17;;;;;;;5.35;86.75;99330.72;5038775;28;20213;-77
2024/03/24 03:05:11;;;;;;;6.07;5.50;;;;;;;5.44;87.56;99311.63;5039518;28;20225;-78
2024/03/24 03:07:37;;;;;;;6.73;5.93;;;;;;;5.34;87.00;99313.50;5035070;28;20220;-79
2024/03/24 03:10:07;;;;;;;8.17;6.37;;;;;;;5.45;86.87;99311.63;5035339;28;20240;-78
2024/03/24 03:12:33;;;;;;;6.33;5.83;;;;;;;5.48;85.99;99313.28;5036338;28;20264;-78
2024/03/24 03:15:00;;;;;;;6.47;5.87;;;;;;;5.21;86.66;99322.34;5036328;28;20206;-79
2024/03/24 03:17:27;;;;;;;6.17;5.70;;;;;;;5.36;87.95;99291.91;5036320;28;20231;-79
2024/03/24 03:19:52;;;;;;;6.40;5.80;;;;;;;5.48;87.19;99274.47;5018730;28;20210;-80
2024/03/24 03:22:18;;;;;;;7.17;5.87;;;;;;;5.58;86.86;99281.19;5015133;28;20260;-79
2024/03/24 03:24:44;;;;;;;5.73;5.23;;;;;;;5.42;85.79;99311.66;5016323;28;20218;-79
2024/03/24 03:27:11;;;;;;;7.07;6.57;;;;;;;5.30;84.91;99307.53;5014532;28;20258;-79
2024/03/24 03:29:37;;;;;;;6.47;5.87;;;;;;;5.35;85.75;99312.63;5016808;28;20575;-76
2024/03/24 03:32:05;;;;;;;5.93;5.43;;;;;;;5.56;86.63;99298.47;5017090;28;20209;-78
2024/03/24 03:34:31;;;;;;;5.50;5.10;;;;;;;5.40;84.69;99299.63;5016165;28;20207;-79
2024/03/24 03:36:58;;;;;;;7.70;5.50;;;;;;;5.40;85.47;99300.47;5015106;28;20229;-79
2024/03/24 03:39:24;;;;;;;5.90;5.40;;;;;;;5.61;85.82;99294.09;5016169;28;20203;-80
2024/03/24 03:41:52;;;;;;;5.67;5.17;;;;;;;5.59;85.68;99303.63;5015575;28;20236;-79
2024/03/24 03:44:18;;;;;;;6.30;5.70;;;;;;;5.66;85.69;99281.91;5016970;28;20209;-78
2024/03/24 03:46:43;;;;;;;6.70;5.17;;;;;;;5.73;84.06;99293.88;5022647;28;20222;-78
2024/03/24 03:49:14;;;;;;;6.00;5.50;;;;;;;5.61;84.71;99306.16;5022088;28;20622;-77
2024/03/24 03:51:40;;;;;;;6.00;5.50;;;;;;;5.65;85.38;99302.63;5014289;28;20565;-78
2024/03/24 03:54:09;;;;;;;5.90;5.40;;;;;;;5.69;84.97;99293.94;5014426;28;20230;-78
2024/03/24 03:56:34;;;;;;;5.80;5.30;;;;;;;5.80;85.68;99284.25;5014228;28;20257;-78
2024/03/24 03:59:00;;;;;;;9.50;5.90;;;;;;;5.74;84.20;99294.72;5015927;28;20669;-79
2024/03/24 04:01:26;;;;;;;5.93;5.00;;;;;;;5.71;84.36;99298.22;5014200;28;20211;-79
2024/03/24 04:03:53;;;;;;;5.23;4.57;;;;;;;5.67;84.87;99291.41;5015023;28;20629;-79
2024/03/24 04:06:19;;;;;;;7.27;5.67;;;;;;;5.53;84.42;99298.53;5015143;28;20230;-79
2024/03/24 04:08:46;;;;;;;5.77;5.17;;;;;;;5.26;85.19;99305.88;5014680;28;20678;-79
2024/03/24 04:11:11;;;;;;;5.53;5.03;;;;;;;5.35;85.89;99290.22;5013752;28;20206;-77
2024/03/24 04:13:38;;;;;;;6.13;5.63;;;;;;;5.58;85.60;99274.28;5015556;28;20365;-79
2024/03/24 04:16:04;;;;;;;5.20;4.80;;;;;;;5.64;85.21;99273.31;5015769;28;20233;-78
2024/03/24 04:18:30;;;;;;;6.33;5.40;;;;;;;5.72;85.23;99268.84;5029643;28;20226;-80
2024/03/24 04:20:56;;;;;;;5.90;5.20;;;;;;;5.67;85.16;99286.22;5017325;28;20274;-79
2024/03/24 04:23:23;;;;;;;5.33;4.93;;;;;;;5.65;85.12;99277.63;5015351;28;20202;-79
2024/03/24 04:25:54;;;;;;;5.93;5.43;;;;;;;5.80;85.40;99263.53;5014824;28;20229;-79
2024/03/24 04:28:20;;;;;;;5.73;5.17;;;;;;;5.76;84.81;99270.50;5016191;28;20208;-80
2024/03/24 04:30:45;;;;;;;5.87;5.30;;;;;;;5.53;83.77;99294.22;5015568;28;20259;-80
2024/03/24 04:33:12;;;;;;;5.50;5.00;;;;;;;5.70;85.07;99283.56;5015683;28;20203;-79
2024/03/24 04:35:37;;;;;;;6.10;5.50;;;;;;;5.52;85.23;99274.38;5022225;28;20224;-77
2024/03/24 04:38:04;;;;;;;6.23;5.63;;;;;;;5.51;85.38;99270.09;5037019;28;20649;-79
2024/03/24 04:40:34;;;;;;;6.03;5.50;;;;;;;5.53;84.11;99270.94;5034684;28;20837;-77
2024/03/24 04:43:00;;;;;;;5.83;5.20;;;;;;;5.52;84.16;99269.19;5035705;28;20296;-79
2024/03/24 04:45:27;;;;;;;6.63;5.10;;;;;;;5.59;83.26;99277.75;5035631;28;20800;-79
2024/03/24 04:47:52;;;;;;;5.23;4.73;;;;;;;5.71;83.19;99284.44;5033568;28;20204;-79
2024/03/24 04:50:19;;;;;;;6.50;5.90;;;;;;;5.75;83.57;99293.84;5014243;28;20263;-79
2024/03/24 04:52:46;;;;;;;5.80;5.30;;;;;;;5.90;83.50;99290.97;5029780;28;20767;-79
2024/03/24 04:55:12;;;;;;;5.70;5.17;;;;;;;5.68;84.01;99300.00;5034410;28;20222;-79
2024/03/24 04:57:39;;;;;;;6.93;5.87;;;;;;;5.66;83.94;99274.13;5034867;28;20226;-79
2024/03/24 05:00:07;;;;;;;6.23;5.70;;;;;;;5.81;84.87;99260.06;5032536;28;20472;-79
2024/03/24 05:02:33;;;;;;;6.97;6.47;;;;;;;5.67;86.53;99236.16;5027774;28;20202;-78
2024/03/24 05:04:59;;;;;;;6.80;6.00;;;;;;;5.68;88.50;99180.91;5032727;28;20263;-78
2024/03/24 05:07:24;;;;;;;6.87;6.27;;;;;;;5.46;90.72;99133.91;5034982;28;20397;-78
2024/03/24 05:09:51;;;;;;;7.97;6.90;;;;;;;5.47;91.64;99086.41;5033740;28;20687;-79
2024/03/24 05:12:17;;;;;;;7.90;7.20;;;;;;;5.54;91.48;99056.94;5033058;28;20202;-78
2024/03/24 05:14:45;;;;;;;7.97;7.27;;;;;;;5.54;92.17;99039.69;5034871;28;20212;-79
2024/03/24 05:17:11;;;;;;;7.13;6.60;;;;;;;5.39;92.83;99008.94;5034106;28;20234;-79
2024/03/24 05:19:37;;;;;;;7.43;6.73;;;;;;;5.33;93.24;98985.78;5018271;28;20199;-79
2024/03/24 05:22:03;;;;;;;7.60;6.93;;;;;;;5.18;94.29;98961.94;5014885;28;20258;-79
2024/03/24 05:24:29;;;;;;;8.53;7.87;;;;;;;5.30;94.25;98947.91;5015097;28;20206;-79
2024/03/24 05:26:54;;;;;;;7.43;6.73;;;;;;;5.20;95.52;98932.63;5020997;28;20234;-79
2024/03/24 05:29:21;;;;;;;8.20;7.50;;;;;;;5.09;94.75;98935.41;5040747;28;20228;-79
2024/03/24 05:31:55;;;;;;;8.53;7.33;;;;;;;5.04;95.53;98940.69;5049351;28;20206;-79
2024/03/24 05:34:22;;;;;;;7.53;6.83;;;;;;;4.89;95.67;98918.56;5031943;28;20212;-79
2024/03/24 05:36:47;;;;;;;7.80;7.20;;;;;;;5.09;96.00;98899.22;5034358;28;20229;-78
2024/03/24 05:39:13;;;;;;;7.30;6.70;;;;;;;5.24;95.53;98890.28;5033922;28;20259;-79
2024/03/24 05:41:39;;;;;;;7.87;7.13;;;;;;;5.18;94.49;98909.38;5032204;28;20209;-77
2024/03/24 05:44:05;;;;;;;7.33;6.73;;;;;;;5.10;94.06;98937.97;5033787;28;20217;-78
2024/03/24 05:46:31;;;;;;;7.83;6.93;;;;;;;5.41;93.01;98951.97;5027585;28;20229;-78
2024/03/24 05:48:58;;;;;;;7.93;7.03;;;;;;;5.57;92.31;98948.19;5014412;28;20206;-78
2024/03/24 05:51:24;;;;;;;6.77;6.27;;;;;;;5.56;91.34;98975.78;5012956;28;20205;-79
2024/03/24 05:53:50;;;;;;;6.90;6.20;;;;;;;5.54;92.55;98981.91;5013098;28;20212;-79
2024/03/24 05:56:16;;;;;;;6.33;5.80;;;;;;;5.36;91.88;98989.16;5012936;28;20766;-78
2024/03/24 05:58:42;;;;;;;6.10;5.60;;;;;;;5.37;92.16;98977.94;5013260;28;20232;-78
2024/03/24 06:01:07;;;;;;;6.03;5.53;;;;;;;5.49;92.44;98981.13;5013672;28;20216;-79
2024/03/24 06:03:34;;;;;;;6.30;5.70;;;;;;;5.62;91.17;98982.56;5013218;28;20270;-79
2024/03/24 06:06:00;;;;;;;5.97;5.37;;;;;;;5.43;92.06;98996.78;5013962;28;20648;-78
2024/03/24 06:08:27;;;;;;;5.57;5.17;;;;;;;5.42;93.13;98995.09;5014238;28;20204;-79
2024/03/24 06:10:53;;;;;;;5.40;5.00;;;;;;;5.59;93.09;98980.06;5028078;28;20208;-77
2024/03/24 06:13:20;;;;;;;5.30;4.90;;;;;;;5.34;92.66;98965.06;5036037;28;20209;-79
2024/03/24 06:15:46;;;;;;;5.40;4.93;;;;;;;5.49;93.97;98950.06;5035918;28;20257;-78
2024/03/24 06:18:12;;;;;;;5.90;5.40;;;;;;;5.45;93.69;98951.91;5025116;28;20266;-78
2024/03/24 06:20:38;;;;;;;5.47;4.97;;;;;;;5.06;94.14;98956.19;5016313;28;20201;-78
2024/03/24 06:23:07;;;;;;;5.80;5.40;;;;;;;5.12;95.40;98928.47;5016269;28;20203;-78
2024/03/24 06:25:33;;;;;;;6.00;5.50;;;;;;;5.16;96.15;98908.56;5016385;28;20221;-78
2024/03/24 06:28:01;;;;;;;6.70;6.20;;;;;;;5.32;96.10;98885.78;5016249;28;20232;-77
2024/03/24 06:30:26;;;;;;;6.70;6.10;;;;;;;5.30;95.30;98891.00;5017786;28;20699;-76
2024/03/24 06:32:53;;;;;;;7.03;6.37;;;;;;;5.52;95.28;98887.91;5016275;28;20209;-78
2024/03/24 06:35:19;;;;;;;6.43;5.90;;;;;;;5.44;94.64;98893.25;5016912;28;20261;-77
2024/03/24 06:37:46;;;;;;;6.57;6.07;;;;;;;5.32;95.40;98894.38;5015734;28;20466;-78
2024/03/24 06:40:13;;;;;;;7.57;6.97;;;;;;;5.20;96.69;98862.78;5015280;28;20237;-78
2024/03/24 06:42:43;;;;;;;6.83;6.33;;;;;;;5.34;97.92;98851.22;5015187;28;20209;-78
2024/03/24 06:45:09;;;;;;;6.87;6.27;;;;;;;5.32;97.81;98831.47;5015848;28;20248;-78
2024/03/24 06:47:35;;;;;;;7.67;6.97;;;;;;;5.25;98.62;98817.81;5017430;28;20201;-77
2024/03/24 06:50:01;;;;;;;7.87;7.17;;;;;;;5.43;97.47;98819.13;5016401;28;20209;-79
2024/03/24 06:52:27;;;;;;;7.80;7.07;;;;;;;5.45;98.54;98811.28;5015946;28;20264;-78
2024/03/24 06:54:53;;;;;;;7.47;6.77;;;;;;;5.45;97.46;98813.88;5014905;28;20260;-78
2024/03/24 06:57:20;;;;;;;6.90;6.40;;;;;;;5.30;97.55;98821.13;5015207;28;20232;-78
2024/03/24 06:59:47;;;;;;;7.10;6.50;;;;;;;5.41;97.34;98817.44;5015388;28;20230;-78
2024/03/24 07:02:13;;;;;;;7.30;6.77;;;;;;;5.58;96.26;98823.91;5014646;28;20583;-78
2024/03/24 07:04:39;;;;;;;7.50;6.87;;;;;;;5.71;96.42;98831.38;5015047;28;20210;-78
2024/03/24 07:07:05;;;;;;;9.10;7.50;;;;;;;5.68;96.41;98837.47;5016044;28;20287;-78
2024/03/24 07:09:31;;;;;;;7.67;7.00;;;;;;;5.83;95.61;98840.53;5015578;28;20206;-78
2024/03/24 07:11:57;;;;;;;7.30;6.70;;;;;;;5.66;94.26;98870.31;5017487;28;20346;-79
2024/03/24 07:14:24;;;;;;;7.50;6.90;;;;;;;5.81;94.79;98873.41;5023154;28;20233;-78
2024/03/24 07:16:50;;;;;;;7.90;7.20;;;;;;;5.87;94.11;98876.69;5026608;28;20242;-78
2024/03/24 07:19:16;;;;;;;7.43;6.87;;;;;;;5.85;94.83;98870.72;5017284;28;20792;-78
2024/03/24 07:21:42;;;;;;;7.60;7.00;;;;;;;5.82;95.13;98878.53;5018025;28;20209;-79
2024/03/24 07:24:08;;;;;;;6.67;6.17;;;;;;;5.56;94.56;98892.13;5035006;28;20213;-78
2024/03/24 07:26:34;;;;;;;6.53;6.03;;;;;;;5.69;94.03;98901.31;5036988;28;20362;-80
2024/03/24 07:28:59;;;;;;;7.00;6.40;;;;;;;5.92;94.71;98892.97;5038506;28;20343;-78
2024/03/24 07:31:27;;;;;;;6.30;5.90;;;;;;;5.95;93.65;98894.69;5037055;28;20606;-78
2024/03/24 07:33:52;;;;;;;6.17;5.60;;;;;;;5.97;93.76;98906.69;5036288;28;20232;-78
2024/03/24 07:36:19;;;;;;;5.97;4.87;;;;;;;6.00;92.12;98925.63;5034581;28;20226;-78
2024/03/24 07:38:44;;;;;;;5.70;5.07;;;;;;;5.94;92.36;98939.53;5026807;28;20228;-79
2024/03/24 07:41:11;;;;;;;5.23;4.83;;;;;;;5.91;92.64;98948.25;5035444;28;20205;-79
2024/03/24 07:43:36;;;;;;;4.73;4.43;;;;;;;6.11;92.17;98940.00;5035531;28;20213;-78
2024/03/24 07:46:03;;;;;;;4.97;4.57;;;;;;;6.13;92.19;98964.16;5035344;28;20248;-77
2024/03/24 07:48:30;;;;;;;4.40;4.00;;;;;;;6.01;92.20;98958.44;5023663;28;20229;-79
2024/03/24 07:50:56;;;;;;;5.03;4.63;;;;;;;6.09;93.33;98951.31;5019117;28;20260;-78
2024/03/24 07:53:21;;;;;;;4.53;4.03;;;;;;;5.88;94.26;98948.31;5035053;28;20206;-78
2024/03/24 07:55:48;;;;;;;4.87;4.47;;;;;;;5.91;94.16;98932.72;5035020;28;20778;-79
2024/03/24 07:58:14;;;;;;;4.70;4.30;;;;;;;6.03;95.00;98912.63;5036004;28;20238;-79
2024/03/24 08:00:40;;;;;;;4.27;3.97;;;;;;;6.03;95.55;98910.03;5037561;28;20889;-78
2024/03/24 08:03:05;;;;;;;4.30;4.00;;;;;;;6.13;94.55;98901.97;5024862;28;20209;-77
2024/03/24 08:05:33;;;;;;;4.50;4.10;;;;;;;6.22;95.03;98894.84;5015106;28;20493;-80
2024/03/24 08:07:58;;;;;;;8.50;4.40;;;;;;;6.36;93.68;98897.91;5017131;28;20214;-78
2024/03/24 08:10:25;;;;;;;4.00;3.70;;;;;;;6.28;94.30;98924.06;5013917;28;20237;-77
2024/03/24 08:12:50;;;;;;;3.70;3.40;;;;;;;6.46;93.68;98929.63;5014281;28;20739;-78
2024/03/24 08:15:16;;;;;;;4.57;3.43;;;;;;;6.49;93.51;98929.56;5014706;28;20229;-77
2024/03/24 08:17:42;;;;;;;3.50;3.20;;;;;;;6.45;93.64;98936.56;5024510;28;20272;-78
2024/03/24 08:20:09;;;;;;;3.33;3.13;;;;;;;6.40;94.65;98933.22;5015188;28;20209;-79
2024/03/24 08:22:37;;;;;;;2.77;2.50;;;;;;;6.08;94.60;98921.94;5014511;28;20208;-78
2024/03/24 08:25:04;;;;;;;2.67;2.47;;;;;;;6.28;95.43;98916.28;5014945;28;20587;-76
2024/03/24 08:27:29;;;;;;;2.27;2.00;;;;;;;6.21;95.38;98900.94;5012923;28;20212;-78
2024/03/24 08:29:56;;;;;;;9.70;8.80;;;;;;;6.23;97.40;98883.59;5014189;28;20268;-78
2024/03/24 08:32:22;;;;;;;2.67;2.47;;;;;;;6.10;95.80;98899.44;5026438;28;20206;-79
2024/03/24 08:34:51;;;;;;;2.37;2.20;;;;;;;6.12;96.80;98889.03;5030038;28;20680;-78
2024/03/24 08:37:16;;;;;;;4.13;3.80;;;;;;;6.09;95.75;98891.75;5032787;28;20746;-79
2024/03/24 08:39:44;;;;;;;2.30;2.10;;;;;;;6.13;97.08;98872.63;5033716;28;20230;-78
2024/03/24 08:42:09;;;;;;;2.60;2.40;;;;;;;6.09;97.08;98876.19;5031908;28;20217;-78
2024/03/24 08:44:35;;;;;;;2.60;2.40;;;;;;;5.95;96.37;98879.97;5034368;28;20721;-78
2024/03/24 08:47:01;;;;;;;2.57;2.37;;;;;;;6.22;97.87;98863.75;5018813;28;20285;-78
2024/03/24 08:49:27;;;;;;;3.00;2.80;;;;;;;5.99;98.45;98869.56;5016029;28;20210;-78
2024/03/24 08:51:52;;;;;;;2.73;2.53;;;;;;;6.06;98.48;98850.34;5040105;28;20255;-77
2024/03/24 08:54:19;;;;;;;2.87;2.67;;;;;;;5.99;99.12;98841.06;5020449;28;20210;-79
2024/03/24 08:56:45;;;;;;;2.50;2.40;;;;;;;5.83;98.79;98854.38;5028756;28;20234;-79
2024/03/24 08:59:12;;;;;;;3.67;3.37;;;;;;;5.69;100.00;98834.00;5024041;28;20639;-78
2024/03/24 09:01:37;;;;;;;4.13;3.83;;;;;;;5.73;100.00;98806.31;5040024;28;20198;-78
2024/03/24 09:04:03;;;;;;;3.63;3.43;;;;;;;5.85;100.00;98787.84;5049718;28;20267;-77
2024/03/24 09:06:29;;;;;;;4.23;3.93;;;;;;;6.06;100.00;98788.19;5036512;28;20279;-78
2024/03/24 09:08:56;;;;;;;4.37;3.97;;;;;;;5.94;100.00;98781.56;5025440;28;20207;-79
2024/03/24 09:11:21;;;;;;;4.37;4.07;;;;;;;5.97;100.00;98784.13;5023183;28;20214;-80
2024/03/24 09:13:49;;;;;;;4.07;3.77;;;;;;;6.12;99.82;98800.97;5039642;28;20264;-78
2024/03/24 09:16:14;;;;;;;5.27;4.77;;;;;;;6.18;100.00;98802.56;5046566;28;20232;-78
2024/03/24 09:18:40;;;;;;;4.07;3.73;;;;;;;6.34;100.00;98804.69;5051624;28;20288;-80
2024/03/24 09:21:06;;;;;;;7.73;7.10;;;;;;;6.28;99.67;98833.38;5051621;28;20209;-78
2024/03/24 09:23:32;;;;;;;5.10;4.70;;;;;;;6.30;99.88;98823.81;5042153;28;20217;-79
2024/03/24 09:25:58;;;;;;;6.20;5.70;;;;;;;6.49;99.89;98821.53;5040597;28;20655;-78
2024/03/24 09:28:24;;;;;;;4.63;4.30;;;;;;;6.39;97.09;98840.00;5040195;28;20204;-79
2024/03/24 09:30:58;;;;;;;6.73;6.13;;;;;;;6.51;97.29;98866.41;5042278;28;20197;-78
2024/03/24 09:33:25;;;;;;;5.57;5.07;;;;;;;6.62;96.27;98863.53;5046536;28;20206;-79
2024/03/24 09:35:50;;;;;;;5.63;5.13;;;;;;;6.67;94.80;98887.56;5046471;28;20222;-80
2024/03/24 09:38:17;;;;;;;5.80;5.30;;;;;;;6.85;93.81;98921.66;5048463;28;20222;-78
2024/03/24 09:40:42;;;;;;;4.03;3.67;;;;;;;7.01;93.84;98935.88;5047278;28;20205;-79
2024/03/24 09:43:08;;;;;;;3.97;3.03;;;;;;;6.84;92.13;98959.72;5047342;28;20210;-78
2024/03/24 09:45:34;;;;;;;3.87;3.17;;;;;;;7.04;93.25;98953.97;5048205;28;20234;-79
2024/03/24 09:48:03;;;;;;;3.50;3.20;;;;;;;7.15;92.66;98958.84;5044024;28;20211;-79
2024/03/24 09:50:28;;;;;;;3.53;3.23;;;;;;;7.19;90.97;98991.59;5041309;28;20210;-79
2024/03/24 09:52:55;;;;;;;3.57;3.37;;;;;;;7.14;89.19;99028.06;5044787;28;20194;-80
2024/03/24 09:55:24;;;;;;;3.57;3.27;;;;;;;7.19;89.30;99042.63;5041614;28;20311;-80
2024/03/24 09:57:51;;;;;;;3.50;3.20;;;;;;;7.34;88.44;99063.81;5043442;28;20194;-79
2024/03/24 10:00:16;;;;;;;4.17;3.77;;;;;;;7.50;88.71;99076.38;5041589;28;20232;-77
2024/03/24 10:02:43;;;;;;;2.90;2.70;;;;;;;7.41;87.67;99093.06;4346865;28;10021622;-77
2024/03/24 10:05:10;;;;;;;3.20;2.80;;;;;;;7.56;88.43;99107.38;5035434;28;20234;-79
2024/03/24 10:07:36;;;;;;;3.53;3.23;;;;;;;7.41;86.73;99121.59;5037354;28;20214;-79
2024/03/24 10:10:01;;;;;;;3.43;3.10;;;;;;;7.39;86.59;99127.75;5038624;28;20197;-79
2024/03/24 10:12:28;;;;;;;3.60;2.53;;;;;;;7.46;86.48;99137.91;5038019;28;20418;-80
2024/03/24 10:14:53;;;;;;;3.13;2.47;;;;;;;7.55;86.51;99150.66;5038064;28;20563;-80
2024/03/24 10:17:21;;;;;;;2.93;2.23;;;;;;;7.70;86.79;99135.53;5038494;28;20669;-79
2024/03/24 10:19:47;;;;;;;2.87;2.57;;;;;;;7.85;85.86;99140.31;5032723;28;20234;-79
2024/03/24 10:22:14;;;;;;;4.77;2.47;;;;;;;8.03;85.69;99161.47;5030518;28;20229;-78
2024/03/24 10:24:42;;;;;;;3.20;2.43;;;;;;;7.97;84.35;99175.47;5032282;28;20263;-80
2024/03/24 10:27:09;;;;;;;2.23;1.97;;;;;;;7.62;82.98;99205.03;5030444;28;20260;-78
2024/03/24 10:29:34;;;;;;;3.33;1.90;;;;;;;7.76;83.36;99213.28;5031555;28;20241;-79
2024/03/24 10:32:01;;;;;;;2.03;1.60;;;;;;;7.88;83.78;99225.94;5027901;28;20206;-77
2024/03/24 10:34:31;;;;;;;4.17;1.70;;;;;;;7.82;82.42;99239.09;5023298;28;20210;-78
2024/03/24 10:36:57;;;;;;;3.70;1.87;;;;;;;7.88;84.53;99230.28;5031316;28;20337;-79
2024/03/24 10:39:24;;;;;;;2.93;1.80;;;;;;;7.82;83.40;99241.69;5030227;28;20222;-79
2024/03/24 10:41:54;;;;;;;3.17;1.90;;;;;;;7.88;82.90;99231.13;5024156;28;20210;-78
2024/03/24 10:44:20;;;;;;;2.60;2.33;;;;;;;7.80;81.67;99259.06;5024213;28;20211;-79
2024/03/24 10:46:49;;;;;;;1.87;1.67;;;;;;;7.67;81.61;99262.88;5032622;28;20241;-78
2024/03/24 10:49:20;;;;;;;4.63;1.53;;;;;;;8.12;83.03;99246.94;5031929;28;20202;-79
2024/03/24 10:51:49;;;;;;;6.37;1.70;;;;;;;8.34;81.82;99253.25;5032891;28;20241;-80
2024/03/24 10:54:17;;;;;;;3.57;1.70;;;;;;;8.36;81.55;99268.78;5031806;28;20207;-79
2024/03/24 10:56:46;;;;;;;3.03;2.10;;;;;;;8.26;78.65;99302.00;5030662;28;20233;-79
2024/03/24 10:59:12;;;;;;;2.47;2.27;;;;;;;8.15;79.59;99315.28;5034813;28;20285;-79
2024/03/24 11:01:39;;;;;;;2.07;1.70;;;;;;;8.18;79.56;99337.75;5035808;28;20207;-79
2024/03/24 11:04:05;;;;;;;2.93;1.60;;;;;;;7.96;77.37;99387.69;5037346;28;20240;-81
2024/03/24 11:06:32;;;;;;;2.40;1.37;;;;;;;8.14;77.56;99375.94;5036446;28;20256;-80
2024/03/24 11:08:59;;;;;;;6.27;2.17;;;;;;;8.35;77.90;99382.34;5038532;28;20202;-77
2024/03/24 11:11:26;;;;;;;2.13;1.63;;;;;;;8.25;78.42;99380.88;5036609;28;20206;-79
2024/03/24 11:13:55;;;;;;;3.57;2.07;;;;;;;8.20;76.53;99411.34;5038665;28;20261;-80
2024/03/24 11:16:21;;;;;;;5.97;2.13;;;;;;;8.25;76.33;99409.50;5038334;28;20222;-79
2024/03/24 11:18:47;;;;;;;3.93;2.00;;;;;;;8.21;75.96;99427.81;5039661;28;20646;-80
2024/03/24 11:21:30;;;;;;;3.77;2.40;;;;;;;8.39;78.78;99418.69;5037752;28;20203;-79
2024/03/24 11:23:58;;;;;;;3.50;2.37;;;;;;;8.15;76.42;99434.00;5038432;28;20221;-79
2024/03/24 11:26:26;;;;;;;3.10;2.00;;;;;;;8.10;76.13;99423.72;4689017;28;10001243;-78
2024/03/24 11:28:54;;;;;;;3.57;2.77;;;;;;;8.14;77.35;99414.94;5049810;28;20240;-79
2024/03/24 11:31:35;;;;;;;3.07;1.90;;;;;;;8.46;78.50;99371.69;5049363;28;20202;-80
2024/03/24 11:34:04;;;;;;;2.83;1.87;;;;;;;8.47;77.58;99365.59;5043353;28;20206;-80
2024/03/24 11:36:32;;;;;;;2.67;1.63;;;;;;;8.21;75.52;99405.25;5029389;28;20222;-79
2024/03/24 11:38:59;;;;;;;2.50;2.30;;;;;;;8.54;77.63;99382.75;5034114;28;20260;-78